sensor_id;sensor_type;location;lat;lon;timestamp;temperature;humidity
50907;DHT22;36882;27.680;85.304;2022-09-13T00:01:39;23.90;99.90
50907;DHT22;36882;27.680;85.304;2022-09-13T00:04:10;23.80;99.90
50907;DHT22;36882;27.680;85.304;2022-09-13T00:06:40;23.90;99.90
50907;DHT22;36882;27.680;85.304;2022-09-13T00:09:10;23.90;99.80
50907;DHT22;36882;27.680;85.304;2022-09-13T00:11:41;23.90;99.90
50907;DHT22;36882;27.680;85.304;2022-09-13T00:14:11;23.90;99.90
50907;DHT22;36882;27.680;85.304;2022-09-13T00:16:42;23.90;99.90
50907;DHT22;36882;27.680;85.304;2022-09-13T00:19:13;23.90;99.80
50907;DHT22;36882;27.680;85.304;2022-09-13T00:21:43;23.90;99.90
50907;DHT22;36882;27.680;85.304;2022-09-13T00:24:14;23.90;99.90
50907;DHT22;36882;27.680;85.304;2022-09-13T00:26:44;23.90;99.90
50907;DHT22;36882;27.680;85.304;2022-09-13T00:29:14;24.00;99.90
50907;DHT22;36882;27.680;85.304;2022-09-13T00:31:45;23.90;99.90
50907;DHT22;36882;27.680;85.304;2022-09-13T00:34:15;23.90;99.90
50907;DHT22;36882;27.680;85.304;2022-09-13T00:36:46;23.90;99.90
50907;DHT22;36882;27.680;85.304;2022-09-13T00:39:16;23.90;99.90
50907;DHT22;36882;27.680;85.304;2022-09-13T00:41:46;23.90;99.90
50907;DHT22;36882;27.680;85.304;2022-09-13T00:47:24;24.00;99.90
50907;DHT22;36882;27.680;85.304;2022-09-13T00:50:27;24.00;99.90
50907;DHT22;36882;27.680;85.304;2022-09-13T00:53:12;24.00;99.90
50907;DHT22;36882;27.680;85.304;2022-09-13T00:55:54;24.10;99.90
50907;DHT22;36882;27.680;85.304;2022-09-13T00:58:33;24.10;99.60
50907;DHT22;36882;27.680;85.304;2022-09-13T01:01:04;24.10;99.70
50907;DHT22;36882;27.680;85.304;2022-09-13T01:03:35;24.00;99.90
50907;DHT22;36882;27.680;85.304;2022-09-13T01:06:10;24.00;99.90
50907;DHT22;36882;27.680;85.304;2022-09-13T01:08:46;24.10;99.90
50907;DHT22;36882;27.680;85.304;2022-09-13T01:11:28;24.10;99.90
50907;DHT22;36882;27.680;85.304;2022-09-13T01:14:00;24.10;99.90
50907;DHT22;36882;27.680;85.304;2022-09-13T01:16:32;24.20;99.90
50907;DHT22;36882;27.680;85.304;2022-09-13T01:19:03;24.20;99.90
50907;DHT22;36882;27.680;85.304;2022-09-13T01:22:01;24.20;99.90
50907;DHT22;36882;27.680;85.304;2022-09-13T01:27:46;24.30;99.90
50907;DHT22;36882;27.680;85.304;2022-09-13T01:30:27;24.30;99.80
50907;DHT22;36882;27.680;85.304;2022-09-13T01:36:12;24.40;99.90
50907;DHT22;36882;27.680;85.304;2022-09-13T01:38:56;24.50;99.70
50907;DHT22;36882;27.680;85.304;2022-09-13T01:42:03;24.50;99.50
50907;DHT22;36882;27.680;85.304;2022-09-13T01:45:08;24.50;99.30
50907;DHT22;36882;27.680;85.304;2022-09-13T01:48:05;24.50;99.50
50907;DHT22;36882;27.680;85.304;2022-09-13T01:50:43;24.50;99.50
50907;DHT22;36882;27.680;85.304;2022-09-13T01:53:33;24.60;99.30
50907;DHT22;36882;27.680;85.304;2022-09-13T01:56:25;24.60;99.30
50907;DHT22;36882;27.680;85.304;2022-09-13T01:59:08;24.70;99.30
50907;DHT22;36882;27.680;85.304;2022-09-13T02:01:46;24.70;99.10
50907;DHT22;36882;27.680;85.304;2022-09-13T02:04:24;24.70;99.10
50907;DHT22;36882;27.680;85.304;2022-09-13T02:07:09;24.70;99.00
50907;DHT22;36882;27.680;85.304;2022-09-13T02:09:48;24.80;99.00
50907;DHT22;36882;27.680;85.304;2022-09-13T02:12:23;24.80;98.90
50907;DHT22;36882;27.680;85.304;2022-09-13T02:15:08;24.80;98.80
50907;DHT22;36882;27.680;85.304;2022-09-13T02:17:47;24.90;98.70
50907;DHT22;36882;27.680;85.304;2022-09-13T02:20:24;24.90;98.80
50907;DHT22;36882;27.680;85.304;2022-09-13T02:23:01;25.00;98.40
50907;DHT22;36882;27.680;85.304;2022-09-13T02:25:33;25.10;98.60
50907;DHT22;36882;27.680;85.304;2022-09-13T02:28:08;25.10;98.20
50907;DHT22;36882;27.680;85.304;2022-09-13T02:30:44;25.10;97.90
50907;DHT22;36882;27.680;85.304;2022-09-13T02:33:44;25.30;97.70
50907;DHT22;36882;27.680;85.304;2022-09-13T02:36:27;25.30;97.80
50907;DHT22;36882;27.680;85.304;2022-09-13T02:39:02;25.40;97.70
50907;DHT22;36882;27.680;85.304;2022-09-13T02:41:54;25.40;97.40
50907;DHT22;36882;27.680;85.304;2022-09-13T02:44:39;25.50;97.00
50907;DHT22;36882;27.680;85.304;2022-09-13T02:56:33;25.50;97.20
50907;DHT22;36882;27.680;85.304;2022-09-13T02:59:20;25.60;96.60
50907;DHT22;36882;27.680;85.304;2022-09-13T03:04:43;25.70;96.80
50907;DHT22;36882;27.680;85.304;2022-09-13T03:07:14;25.90;96.80
50907;DHT22;36882;27.680;85.304;2022-09-13T03:09:53;25.90;95.90
50907;DHT22;36882;27.680;85.304;2022-09-13T03:18:50;26.30;95.70
50907;DHT22;36882;27.680;85.304;2022-09-13T03:21:50;26.40;95.30
50907;DHT22;36882;27.680;85.304;2022-09-13T03:24:27;26.40;94.70
50907;DHT22;36882;27.680;85.304;2022-09-13T03:27:24;26.50;95.00
50907;DHT22;36882;27.680;85.304;2022-09-13T03:30:03;26.60;94.50
50907;DHT22;36882;27.680;85.304;2022-09-13T03:32:58;26.60;94.50
50907;DHT22;36882;27.680;85.304;2022-09-13T03:35:56;26.60;94.00
50907;DHT22;36882;27.680;85.304;2022-09-13T03:38:36;26.60;95.10
50907;DHT22;36882;27.680;85.304;2022-09-13T03:41:13;26.80;94.40
50907;DHT22;36882;27.680;85.304;2022-09-13T03:43:52;26.70;94.60
50907;DHT22;36882;27.680;85.304;2022-09-13T03:46:32;26.70;95.10
50907;DHT22;36882;27.680;85.304;2022-09-13T03:49:10;26.80;94.70
50907;DHT22;36882;27.680;85.304;2022-09-13T03:51:43;26.90;94.60
50907;DHT22;36882;27.680;85.304;2022-09-13T03:54:18;27.00;93.70
50907;DHT22;36882;27.680;85.304;2022-09-13T03:57:07;27.00;94.10
50907;DHT22;36882;27.680;85.304;2022-09-13T03:59:42;27.00;93.90
50907;DHT22;36882;27.680;85.304;2022-09-13T04:02:14;27.10;93.70
50907;DHT22;36882;27.680;85.304;2022-09-13T04:04:48;27.30;93.50
50907;DHT22;36882;27.680;85.304;2022-09-13T04:07:20;27.30;93.30
50907;DHT22;36882;27.680;85.304;2022-09-13T04:09:51;27.30;93.80
50907;DHT22;36882;27.680;85.304;2022-09-13T04:12:21;27.30;94.10
50907;DHT22;36882;27.680;85.304;2022-09-13T04:14:52;27.30;93.90
50907;DHT22;36882;27.680;85.304;2022-09-13T04:17:22;27.40;93.90
50907;DHT22;36882;27.680;85.304;2022-09-13T04:19:53;27.50;93.50
50907;DHT22;36882;27.680;85.304;2022-09-13T04:22:23;27.50;93.50
50907;DHT22;36882;27.680;85.304;2022-09-13T04:24:52;27.50;92.90
50907;DHT22;36882;27.680;85.304;2022-09-13T04:27:28;27.60;92.90
50907;DHT22;36882;27.680;85.304;2022-09-13T04:29:58;27.70;92.70
50907;DHT22;36882;27.680;85.304;2022-09-13T04:32:28;27.60;92.60
50907;DHT22;36882;27.680;85.304;2022-09-13T04:34:58;27.60;93.10
50907;DHT22;36882;27.680;85.304;2022-09-13T04:37:28;27.70;93.20
50907;DHT22;36882;27.680;85.304;2022-09-13T04:40:00;27.80;93.50
50907;DHT22;36882;27.680;85.304;2022-09-13T04:42:31;27.90;93.10
50907;DHT22;36882;27.680;85.304;2022-09-13T04:45:02;28.00;92.80
50907;DHT22;36882;27.680;85.304;2022-09-13T04:47:33;28.10;92.90
50907;DHT22;36882;27.680;85.304;2022-09-13T04:50:03;28.20;92.80
50907;DHT22;36882;27.680;85.304;2022-09-13T04:52:35;28.20;92.20
50907;DHT22;36882;27.680;85.304;2022-09-13T04:55:07;28.10;92.30
50907;DHT22;36882;27.680;85.304;2022-09-13T04:57:37;28.20;92.30
50907;DHT22;36882;27.680;85.304;2022-09-13T05:00:07;28.30;91.90
50907;DHT22;36882;27.680;85.304;2022-09-13T05:02:38;28.40;91.90
50907;DHT22;36882;27.680;85.304;2022-09-13T05:05:08;28.30;91.80
50907;DHT22;36882;27.680;85.304;2022-09-13T05:07:38;28.20;92.00
50907;DHT22;36882;27.680;85.304;2022-09-13T05:10:09;28.20;92.00
50907;DHT22;36882;27.680;85.304;2022-09-13T05:12:45;28.10;91.90
50907;DHT22;36882;27.680;85.304;2022-09-13T05:15:15;28.20;91.90
50907;DHT22;36882;27.680;85.304;2022-09-13T05:17:45;28.30;92.30
50907;DHT22;36882;27.680;85.304;2022-09-13T05:20:15;28.40;91.20
50907;DHT22;36882;27.680;85.304;2022-09-13T05:22:45;28.50;91.00
50907;DHT22;36882;27.680;85.304;2022-09-13T05:25:15;28.50;91.20
50907;DHT22;36882;27.680;85.304;2022-09-13T05:27:49;28.50;91.30
50907;DHT22;36882;27.680;85.304;2022-09-13T05:30:19;28.50;90.90
50907;DHT22;36882;27.680;85.304;2022-09-13T05:32:49;28.50;91.60
50907;DHT22;36882;27.680;85.304;2022-09-13T05:35:19;28.40;91.20
50907;DHT22;36882;27.680;85.304;2022-09-13T05:37:59;28.50;91.00
50907;DHT22;36882;27.680;85.304;2022-09-13T05:40:30;28.60;90.80
50907;DHT22;36882;27.680;85.304;2022-09-13T05:43:00;28.50;90.90
50907;DHT22;36882;27.680;85.304;2022-09-13T05:45:30;28.60;91.20
50907;DHT22;36882;27.680;85.304;2022-09-13T05:48:01;28.50;91.60
50907;DHT22;36882;27.680;85.304;2022-09-13T05:50:30;28.50;90.80
50907;DHT22;36882;27.680;85.304;2022-09-13T05:53:20;28.50;91.00
50907;DHT22;36882;27.680;85.304;2022-09-13T05:55:50;28.50;90.60
50907;DHT22;36882;27.680;85.304;2022-09-13T05:58:20;28.60;91.00
50907;DHT22;36882;27.680;85.304;2022-09-13T06:00:57;28.50;90.50
50907;DHT22;36882;27.680;85.304;2022-09-13T06:03:29;28.60;90.50
50907;DHT22;36882;27.680;85.304;2022-09-13T06:05:59;28.70;90.80
50907;DHT22;36882;27.680;85.304;2022-09-13T06:08:35;28.70;90.90
50907;DHT22;36882;27.680;85.304;2022-09-13T06:11:08;28.80;91.00
50907;DHT22;36882;27.680;85.304;2022-09-13T06:13:40;28.80;91.20
50907;DHT22;36882;27.680;85.304;2022-09-13T06:16:16;28.80;91.40
50907;DHT22;36882;27.680;85.304;2022-09-13T06:18:46;28.90;91.10
50907;DHT22;36882;27.680;85.304;2022-09-13T06:21:19;28.90;91.00
50907;DHT22;36882;27.680;85.304;2022-09-13T06:23:55;28.90;90.60
50907;DHT22;36882;27.680;85.304;2022-09-13T06:26:26;28.90;90.40
50907;DHT22;36882;27.680;85.304;2022-09-13T06:28:57;28.90;91.00
50907;DHT22;36882;27.680;85.304;2022-09-13T06:31:28;29.00;90.60
50907;DHT22;36882;27.680;85.304;2022-09-13T06:34:00;29.10;90.80
50907;DHT22;36882;27.680;85.304;2022-09-13T06:36:31;29.20;90.30
50907;DHT22;36882;27.680;85.304;2022-09-13T06:39:01;29.30;89.80
50907;DHT22;36882;27.680;85.304;2022-09-13T06:41:33;29.20;90.10
50907;DHT22;36882;27.680;85.304;2022-09-13T06:44:04;29.20;90.30
50907;DHT22;36882;27.680;85.304;2022-09-13T06:46:34;29.10;91.40
50907;DHT22;36882;27.680;85.304;2022-09-13T06:49:06;29.10;91.40
50907;DHT22;36882;27.680;85.304;2022-09-13T06:51:37;29.10;91.40
50907;DHT22;36882;27.680;85.304;2022-09-13T06:54:07;29.10;91.70
50907;DHT22;36882;27.680;85.304;2022-09-13T06:56:37;28.90;91.50
50907;DHT22;36882;27.680;85.304;2022-09-13T06:59:09;28.80;92.00
50907;DHT22;36882;27.680;85.304;2022-09-13T07:01:41;28.60;92.30
50907;DHT22;36882;27.680;85.304;2022-09-13T07:04:15;28.60;92.60
50907;DHT22;36882;27.680;85.304;2022-09-13T07:06:47;28.50;92.50
50907;DHT22;36882;27.680;85.304;2022-09-13T07:09:19;28.60;92.40
50907;DHT22;36882;27.680;85.304;2022-09-13T07:11:52;28.50;92.50
50907;DHT22;36882;27.680;85.304;2022-09-13T07:14:25;28.50;92.70
50907;DHT22;36882;27.680;85.304;2022-09-13T07:16:55;28.40;92.90
50907;DHT22;36882;27.680;85.304;2022-09-13T07:19:26;28.40;92.90
50907;DHT22;36882;27.680;85.304;2022-09-13T07:21:57;28.40;92.70
50907;DHT22;36882;27.680;85.304;2022-09-13T07:24:27;28.20;92.50
50907;DHT22;36882;27.680;85.304;2022-09-13T07:26:57;27.90;93.30
50907;DHT22;36882;27.680;85.304;2022-09-13T07:29:27;27.80;94.20
50907;DHT22;36882;27.680;85.304;2022-09-13T07:31:57;27.70;94.50
50907;DHT22;36882;27.680;85.304;2022-09-13T07:34:27;27.40;94.70
50907;DHT22;36882;27.680;85.304;2022-09-13T07:36:57;27.30;95.40
50907;DHT22;36882;27.680;85.304;2022-09-13T07:39:27;27.30;95.50
50907;DHT22;36882;27.680;85.304;2022-09-13T07:41:57;27.20;95.70
50907;DHT22;36882;27.680;85.304;2022-09-13T07:44:27;27.40;95.90
50907;DHT22;36882;27.680;85.304;2022-09-13T07:46:57;27.50;95.70
50907;DHT22;36882;27.680;85.304;2022-09-13T07:49:26;27.70;96.00
50907;DHT22;36882;27.680;85.304;2022-09-13T07:51:56;27.90;95.30
50907;DHT22;36882;27.680;85.304;2022-09-13T07:54:26;28.10;94.90
50907;DHT22;36882;27.680;85.304;2022-09-13T07:56:56;28.10;93.90
50907;DHT22;36882;27.680;85.304;2022-09-13T07:59:29;28.30;93.70
50907;DHT22;36882;27.680;85.304;2022-09-13T08:01:59;28.50;93.10
50907;DHT22;36882;27.680;85.304;2022-09-13T08:04:29;28.50;92.70
50907;DHT22;36882;27.680;85.304;2022-09-13T08:07:02;28.70;92.70
50907;DHT22;36882;27.680;85.304;2022-09-13T08:09:32;28.60;92.70
50907;DHT22;36882;27.680;85.304;2022-09-13T08:12:02;28.60;92.40
50907;DHT22;36882;27.680;85.304;2022-09-13T08:14:32;28.60;92.60
50907;DHT22;36882;27.680;85.304;2022-09-13T08:17:02;28.60;92.70
50907;DHT22;36882;27.680;85.304;2022-09-13T08:19:33;28.50;92.90
50907;DHT22;36882;27.680;85.304;2022-09-13T08:22:02;28.40;93.30
50907;DHT22;36882;27.680;85.304;2022-09-13T08:24:32;28.30;94.60
50907;DHT22;36882;27.680;85.304;2022-09-13T08:27:04;27.70;94.50
50907;DHT22;36882;27.680;85.304;2022-09-13T08:29:39;28.10;94.60
50907;DHT22;36882;27.680;85.304;2022-09-13T08:32:09;28.10;95.30
50907;DHT22;36882;27.680;85.304;2022-09-13T08:34:39;28.10;94.80
50907;DHT22;36882;27.680;85.304;2022-09-13T08:37:09;28.10;94.30
50907;DHT22;36882;27.680;85.304;2022-09-13T08:39:41;28.00;94.20
50907;DHT22;36882;27.680;85.304;2022-09-13T08:45:01;28.10;94.70
50907;DHT22;36882;27.680;85.304;2022-09-13T08:47:40;28.20;94.70
50907;DHT22;36882;27.680;85.304;2022-09-13T08:50:40;28.20;93.80
50907;DHT22;36882;27.680;85.304;2022-09-13T08:53:28;28.30;94.00
50907;DHT22;36882;27.680;85.304;2022-09-13T08:59:39;28.40;93.30
50907;DHT22;36882;27.680;85.304;2022-09-13T09:02:38;28.40;92.90
50907;DHT22;36882;27.680;85.304;2022-09-13T09:05:25;28.40;92.00
50907;DHT22;36882;27.680;85.304;2022-09-13T09:08:00;28.40;92.20
50907;DHT22;36882;27.680;85.304;2022-09-13T09:10:40;28.40;91.60
50907;DHT22;36882;27.680;85.304;2022-09-13T09:13:30;28.40;92.30
50907;DHT22;36882;27.680;85.304;2022-09-13T09:16:32;28.30;91.80
50907;DHT22;36882;27.680;85.304;2022-09-13T09:19:14;28.30;91.30
50907;DHT22;36882;27.680;85.304;2022-09-13T09:21:48;28.40;91.30
50907;DHT22;36882;27.680;85.304;2022-09-13T09:24:24;28.40;91.50
50907;DHT22;36882;27.680;85.304;2022-09-13T09:26:56;28.50;91.80
50907;DHT22;36882;27.680;85.304;2022-09-13T09:29:30;28.50;92.60
50907;DHT22;36882;27.680;85.304;2022-09-13T09:38:27;28.70;92.60
50907;DHT22;36882;27.680;85.304;2022-09-13T09:41:05;28.90;92.10
50907;DHT22;36882;27.680;85.304;2022-09-13T09:43:45;29.00;92.40
50907;DHT22;36882;27.680;85.304;2022-09-13T09:46:15;29.00;92.10
50907;DHT22;36882;27.680;85.304;2022-09-13T09:48:55;29.00;91.90
50907;DHT22;36882;27.680;85.304;2022-09-13T09:51:27;29.00;91.80
50907;DHT22;36882;27.680;85.304;2022-09-13T09:54:01;29.00;91.30
50907;DHT22;36882;27.680;85.304;2022-09-13T09:56:34;29.00;91.40
50907;DHT22;36882;27.680;85.304;2022-09-13T09:59:25;29.00;91.60
50907;DHT22;36882;27.680;85.304;2022-09-13T10:01:57;29.00;91.10
50907;DHT22;36882;27.680;85.304;2022-09-13T10:04:28;28.90;91.50
50907;DHT22;36882;27.680;85.304;2022-09-13T10:10:05;28.90;91.80
50907;DHT22;36882;27.680;85.304;2022-09-13T10:12:37;28.90;91.10
50907;DHT22;36882;27.680;85.304;2022-09-13T10:15:17;28.80;91.40
50907;DHT22;36882;27.680;85.304;2022-09-13T10:18:05;28.60;91.90
50907;DHT22;36882;27.680;85.304;2022-09-13T10:21:03;28.40;92.40
50907;DHT22;36882;27.680;85.304;2022-09-13T10:23:35;28.30;93.00
50907;DHT22;36882;27.680;85.304;2022-09-13T10:26:15;28.30;92.90
50907;DHT22;36882;27.680;85.304;2022-09-13T10:29:06;28.30;92.90
50907;DHT22;36882;27.680;85.304;2022-09-13T10:31:40;28.30;92.10
50907;DHT22;36882;27.680;85.304;2022-09-13T10:34:20;28.20;92.20
50907;DHT22;36882;27.680;85.304;2022-09-13T10:37:15;28.20;92.50
50907;DHT22;36882;27.680;85.304;2022-09-13T10:40:02;27.90;93.30
50907;DHT22;36882;27.680;85.304;2022-09-13T10:42:36;27.90;93.10
50907;DHT22;36882;27.680;85.304;2022-09-13T10:45:08;27.80;92.70
50907;DHT22;36882;27.680;85.304;2022-09-13T10:47:50;27.90;92.90
50907;DHT22;36882;27.680;85.304;2022-09-13T10:50:27;27.90;92.60
50907;DHT22;36882;27.680;85.304;2022-09-13T10:52:59;28.00;93.20
50907;DHT22;36882;27.680;85.304;2022-09-13T10:55:35;27.80;93.70
50907;DHT22;36882;27.680;85.304;2022-09-13T10:58:13;27.80;93.60
50907;DHT22;36882;27.680;85.304;2022-09-13T11:06:41;27.60;93.60
50907;DHT22;36882;27.680;85.304;2022-09-13T11:09:22;27.60;93.80
50907;DHT22;36882;27.680;85.304;2022-09-13T11:12:18;27.60;93.80
50907;DHT22;36882;27.680;85.304;2022-09-13T11:15:15;27.60;93.80
50907;DHT22;36882;27.680;85.304;2022-09-13T11:21:07;27.60;94.00
50907;DHT22;36882;27.680;85.304;2022-09-13T11:24:27;27.60;94.00
50907;DHT22;36882;27.680;85.304;2022-09-13T11:29:53;27.60;94.20
50907;DHT22;36882;27.680;85.304;2022-09-13T11:35:51;27.60;94.00
50907;DHT22;36882;27.680;85.304;2022-09-13T11:38:47;27.50;93.80
50907;DHT22;36882;27.680;85.304;2022-09-13T11:44:44;27.50;94.20
50907;DHT22;36882;27.680;85.304;2022-09-13T11:47:38;27.40;94.50
50907;DHT22;36882;27.680;85.304;2022-09-13T11:50:26;27.20;94.60
50907;DHT22;36882;27.680;85.304;2022-09-13T11:53:10;27.00;94.70
50907;DHT22;36882;27.680;85.304;2022-09-13T11:55:48;26.90;95.00
50907;DHT22;36882;27.680;85.304;2022-09-13T11:58:25;26.70;95.30
50907;DHT22;36882;27.680;85.304;2022-09-13T12:01:05;26.70;95.30
50907;DHT22;36882;27.680;85.304;2022-09-13T12:03:55;26.70;95.50
50907;DHT22;36882;27.680;85.304;2022-09-13T12:06:34;26.70;95.60
50907;DHT22;36882;27.680;85.304;2022-09-13T12:09:18;26.60;95.40
50907;DHT22;36882;27.680;85.304;2022-09-13T12:12:02;26.60;95.70
50907;DHT22;36882;27.680;85.304;2022-09-13T12:14:56;26.50;95.70
50907;DHT22;36882;27.680;85.304;2022-09-13T12:17:34;26.50;95.60
50907;DHT22;36882;27.680;85.304;2022-09-13T12:20:34;26.50;95.80
50907;DHT22;36882;27.680;85.304;2022-09-13T12:23:10;26.50;96.00
50907;DHT22;36882;27.680;85.304;2022-09-13T12:28:35;26.40;95.70
50907;DHT22;36882;27.680;85.304;2022-09-13T12:31:14;26.40;95.80
50907;DHT22;36882;27.680;85.304;2022-09-13T12:33:48;26.30;96.00
50907;DHT22;36882;27.680;85.304;2022-09-13T12:36:36;26.30;95.90
50907;DHT22;36882;27.680;85.304;2022-09-13T12:42:49;26.20;96.00
50907;DHT22;36882;27.680;85.304;2022-09-13T12:54:37;26.00;96.20
50907;DHT22;36882;27.680;85.304;2022-09-13T12:57:33;25.90;96.40
50907;DHT22;36882;27.680;85.304;2022-09-13T13:00:22;25.80;96.70
50907;DHT22;36882;27.680;85.304;2022-09-13T13:03:13;25.80;96.60
50907;DHT22;36882;27.680;85.304;2022-09-13T13:05:49;25.80;96.50
50907;DHT22;36882;27.680;85.304;2022-09-13T13:08:27;25.80;96.40
50907;DHT22;36882;27.680;85.304;2022-09-13T13:11:09;25.70;96.30
50907;DHT22;36882;27.680;85.304;2022-09-13T13:13:45;25.70;96.20
50907;DHT22;36882;27.680;85.304;2022-09-13T13:16:33;25.70;96.20
50907;DHT22;36882;27.680;85.304;2022-09-13T13:19:27;25.70;96.30
50907;DHT22;36882;27.680;85.304;2022-09-13T13:25:34;25.70;96.50
50907;DHT22;36882;27.680;85.304;2022-09-13T13:31:33;25.70;96.50
50907;DHT22;36882;27.680;85.304;2022-09-13T13:34:26;25.60;96.70
50907;DHT22;36882;27.680;85.304;2022-09-13T13:37:02;25.60;96.80
50907;DHT22;36882;27.680;85.304;2022-09-13T13:39:37;25.60;96.90
50907;DHT22;36882;27.680;85.304;2022-09-13T13:42:27;25.50;97.20
50907;DHT22;36882;27.680;85.304;2022-09-13T13:45:16;25.40;97.40
50907;DHT22;36882;27.680;85.304;2022-09-13T13:48:08;25.50;97.60
50907;DHT22;36882;27.680;85.304;2022-09-13T13:53:51;25.50;97.80
50907;DHT22;36882;27.680;85.304;2022-09-13T13:56:33;25.50;97.90
50907;DHT22;36882;27.680;85.304;2022-09-13T13:59:23;25.50;97.70
50907;DHT22;36882;27.680;85.304;2022-09-13T14:01:56;25.50;97.60
50907;DHT22;36882;27.680;85.304;2022-09-13T14:04:57;25.50;97.60
50907;DHT22;36882;27.680;85.304;2022-09-13T14:13:58;25.50;98.10
50907;DHT22;36882;27.680;85.304;2022-09-13T14:16:58;25.50;97.90
50907;DHT22;36882;27.680;85.304;2022-09-13T14:19:41;25.40;98.00
50907;DHT22;36882;27.680;85.304;2022-09-13T14:22:18;25.30;98.00
50907;DHT22;36882;27.680;85.304;2022-09-13T14:24:51;25.20;97.90
50907;DHT22;36882;27.680;85.304;2022-09-13T14:27:25;25.10;98.00
50907;DHT22;36882;27.680;85.304;2022-09-13T14:30:16;25.30;97.90
50907;DHT22;36882;27.680;85.304;2022-09-13T14:32:49;25.30;97.90
50907;DHT22;36882;27.680;85.304;2022-09-13T14:35:34;25.30;98.20
50907;DHT22;36882;27.680;85.304;2022-09-13T14:38:22;25.30;98.50
50907;DHT22;36882;27.680;85.304;2022-09-13T14:40:58;25.30;98.60
50907;DHT22;36882;27.680;85.304;2022-09-13T14:43:29;25.40;98.40
50907;DHT22;36882;27.680;85.304;2022-09-13T14:46:10;25.40;98.80
50907;DHT22;36882;27.680;85.304;2022-09-13T14:48:53;25.30;98.90
50907;DHT22;36882;27.680;85.304;2022-09-13T14:51:28;25.20;98.50
50907;DHT22;36882;27.680;85.304;2022-09-13T14:54:08;25.20;98.30
50907;DHT22;36882;27.680;85.304;2022-09-13T14:56:43;25.20;98.60
50907;DHT22;36882;27.680;85.304;2022-09-13T14:59:25;25.20;98.60
50907;DHT22;36882;27.680;85.304;2022-09-13T15:01:56;25.30;98.70
50907;DHT22;36882;27.680;85.304;2022-09-13T15:04:29;25.20;98.30
50907;DHT22;36882;27.680;85.304;2022-09-13T15:07:15;25.10;98.20
50907;DHT22;36882;27.680;85.304;2022-09-13T15:09:47;25.10;98.40
50907;DHT22;36882;27.680;85.304;2022-09-13T15:12:26;25.10;98.90
50907;DHT22;36882;27.680;85.304;2022-09-13T15:18:22;24.70;99.80
50907;DHT22;36882;27.680;85.304;2022-09-13T15:20:58;24.60;99.90
50907;DHT22;36882;27.680;85.304;2022-09-13T15:23:49;24.50;99.90
50907;DHT22;36882;27.680;85.304;2022-09-13T15:26:22;24.50;99.90
50907;DHT22;36882;27.680;85.304;2022-09-13T15:28:58;24.50;99.90
50907;DHT22;36882;27.680;85.304;2022-09-13T15:31:33;24.50;99.90
50907;DHT22;36882;27.680;85.304;2022-09-13T15:34:21;24.50;99.90
50907;DHT22;36882;27.680;85.304;2022-09-13T15:37:10;24.40;99.90
50907;DHT22;36882;27.680;85.304;2022-09-13T15:39:47;24.40;99.90
50907;DHT22;36882;27.680;85.304;2022-09-13T15:42:17;24.30;99.90
50907;DHT22;36882;27.680;85.304;2022-09-13T15:44:47;24.30;99.90
50907;DHT22;36882;27.680;85.304;2022-09-13T15:47:18;24.40;99.90
50907;DHT22;36882;27.680;85.304;2022-09-13T15:49:50;24.30;99.90
50907;DHT22;36882;27.680;85.304;2022-09-13T15:52:20;24.40;99.90
50907;DHT22;36882;27.680;85.304;2022-09-13T15:54:52;24.40;99.90
50907;DHT22;36882;27.680;85.304;2022-09-13T15:57:25;24.40;99.90
50907;DHT22;36882;27.680;85.304;2022-09-13T15:59:56;24.40;99.90
50907;DHT22;36882;27.680;85.304;2022-09-13T16:02:33;24.40;99.90
50907;DHT22;36882;27.680;85.304;2022-09-13T16:05:06;24.40;99.90
50907;DHT22;36882;27.680;85.304;2022-09-13T16:07:37;24.40;99.90
50907;DHT22;36882;27.680;85.304;2022-09-13T16:10:26;24.30;99.90
50907;DHT22;36882;27.680;85.304;2022-09-13T16:12:56;24.30;99.90
50907;DHT22;36882;27.680;85.304;2022-09-13T16:15:26;24.30;99.90
50907;DHT22;36882;27.680;85.304;2022-09-13T16:17:57;24.30;99.90
50907;DHT22;36882;27.680;85.304;2022-09-13T16:20:26;24.30;99.90
50907;DHT22;36882;27.680;85.304;2022-09-13T16:22:56;24.20;99.90
50907;DHT22;36882;27.680;85.304;2022-09-13T16:25:26;24.20;99.90
50907;DHT22;36882;27.680;85.304;2022-09-13T16:27:56;24.20;99.90
50907;DHT22;36882;27.680;85.304;2022-09-13T16:30:27;24.20;99.90
50907;DHT22;36882;27.680;85.304;2022-09-13T16:32:59;24.10;99.90
50907;DHT22;36882;27.680;85.304;2022-09-13T16:35:31;24.10;99.90
50907;DHT22;36882;27.680;85.304;2022-09-13T16:38:01;24.10;99.90
50907;DHT22;36882;27.680;85.304;2022-09-13T16:40:30;24.20;99.90
50907;DHT22;36882;27.680;85.304;2022-09-13T16:43:00;24.20;99.90
50907;DHT22;36882;27.680;85.304;2022-09-13T16:45:31;24.20;99.90
50907;DHT22;36882;27.680;85.304;2022-09-13T16:48:00;24.20;99.90
50907;DHT22;36882;27.680;85.304;2022-09-13T16:50:31;24.10;99.90
50907;DHT22;36882;27.680;85.304;2022-09-13T16:53:02;24.10;99.90
50907;DHT22;36882;27.680;85.304;2022-09-13T16:55:32;24.10;99.90
50907;DHT22;36882;27.680;85.304;2022-09-13T16:58:02;24.10;99.90
50907;DHT22;36882;27.680;85.304;2022-09-13T17:00:31;24.20;99.90
50907;DHT22;36882;27.680;85.304;2022-09-13T17:03:01;24.20;99.90
50907;DHT22;36882;27.680;85.304;2022-09-13T17:05:33;24.10;99.90
50907;DHT22;36882;27.680;85.304;2022-09-13T17:08:03;24.20;99.90
50907;DHT22;36882;27.680;85.304;2022-09-13T17:10:32;24.20;99.90
50907;DHT22;36882;27.680;85.304;2022-09-13T17:13:02;24.20;99.90
50907;DHT22;36882;27.680;85.304;2022-09-13T17:15:38;24.20;99.90
50907;DHT22;36882;27.680;85.304;2022-09-13T17:18:08;24.20;99.90
50907;DHT22;36882;27.680;85.304;2022-09-13T17:20:47;24.20;99.90
50907;DHT22;36882;27.680;85.304;2022-09-13T17:23:17;24.10;99.90
50907;DHT22;36882;27.680;85.304;2022-09-13T17:25:48;24.10;99.90
50907;DHT22;36882;27.680;85.304;2022-09-13T17:28:18;24.00;99.90
50907;DHT22;36882;27.680;85.304;2022-09-13T17:30:49;24.00;99.90
50907;DHT22;36882;27.680;85.304;2022-09-13T17:33:19;24.00;99.90
50907;DHT22;36882;27.680;85.304;2022-09-13T17:36:00;23.90;99.90
50907;DHT22;36882;27.680;85.304;2022-09-13T17:38:30;23.90;99.90
50907;DHT22;36882;27.680;85.304;2022-09-13T17:41:03;23.80;99.90
50907;DHT22;36882;27.680;85.304;2022-09-13T17:43:34;23.80;99.90
50907;DHT22;36882;27.680;85.304;2022-09-13T17:46:07;23.80;99.90
50907;DHT22;36882;27.680;85.304;2022-09-13T17:48:37;23.80;99.90
50907;DHT22;36882;27.680;85.304;2022-09-13T17:51:11;23.80;99.90